sensor_id;sensor_type;location;lat;lon;timestamp;P1;durP1;ratioP1;P2;durP2;ratioP2
75059;SDS011;63640;59.264;18.116;2023-06-24T00:02:15;11.95;;;4.53;;
75059;SDS011;63640;59.264;18.116;2023-06-24T00:04:40;14.93;;;4.95;;
75059;SDS011;63640;59.264;18.116;2023-06-24T00:07:06;10.23;;;4.53;;
75059;SDS011;63640;59.264;18.116;2023-06-24T00:09:31;10.15;;;4.70;;
75059;SDS011;63640;59.264;18.116;2023-06-24T00:11:57;14.43;;;4.88;;
75059;SDS011;63640;59.264;18.116;2023-06-24T00:14:26;11.07;;;4.50;;
75059;SDS011;63640;59.264;18.116;2023-06-24T00:16:52;13.30;;;4.47;;
75059;SDS011;63640;59.264;18.116;2023-06-24T00:19:19;10.07;;;4.30;;
75059;SDS011;63640;59.264;18.116;2023-06-24T00:21:48;10.02;;;3.97;;
75059;SDS011;63640;59.264;18.116;2023-06-24T00:24:16;11.38;;;5.15;;
75059;SDS011;63640;59.264;18.116;2023-06-24T00:26:46;8.57;;;4.53;;
75059;SDS011;63640;59.264;18.116;2023-06-24T00:29:12;7.93;;;4.32;;
75059;SDS011;63640;59.264;18.116;2023-06-24T00:31:38;10.00;;;4.57;;
75059;SDS011;63640;59.264;18.116;2023-06-24T00:34:04;9.27;;;4.38;;
75059;SDS011;63640;59.264;18.116;2023-06-24T00:36:29;9.38;;;4.20;;
75059;SDS011;63640;59.264;18.116;2023-06-24T00:38:57;10.77;;;4.50;;
75059;SDS011;63640;59.264;18.116;2023-06-24T00:41:31;9.35;;;4.53;;
75059;SDS011;63640;59.264;18.116;2023-06-24T00:44:00;9.95;;;4.28;;
75059;SDS011;63640;59.264;18.116;2023-06-24T00:46:27;8.90;;;4.32;;
75059;SDS011;63640;59.264;18.116;2023-06-24T00:48:54;15.88;;;5.22;;
75059;SDS011;63640;59.264;18.116;2023-06-24T00:51:20;10.65;;;4.63;;
75059;SDS011;63640;59.264;18.116;2023-06-24T00:53:54;9.07;;;4.60;;
75059;SDS011;63640;59.264;18.116;2023-06-24T00:56:21;8.52;;;4.57;;
75059;SDS011;63640;59.264;18.116;2023-06-24T00:58:47;10.13;;;4.57;;
75059;SDS011;63640;59.264;18.116;2023-06-24T01:01:13;10.30;;;4.57;;
75059;SDS011;63640;59.264;18.116;2023-06-24T01:03:39;7.45;;;4.15;;
75059;SDS011;63640;59.264;18.116;2023-06-24T01:06:05;10.13;;;4.60;;
75059;SDS011;63640;59.264;18.116;2023-06-24T01:08:31;10.25;;;4.13;;
75059;SDS011;63640;59.264;18.116;2023-06-24T01:10:56;7.50;;;4.45;;
75059;SDS011;63640;59.264;18.116;2023-06-24T01:13:22;8.85;;;4.70;;
75059;SDS011;63640;59.264;18.116;2023-06-24T01:15:47;8.30;;;4.22;;
75059;SDS011;63640;59.264;18.116;2023-06-24T01:18:16;7.45;;;4.20;;
75059;SDS011;63640;59.264;18.116;2023-06-24T01:29:04;7.78;;;4.32;;
75059;SDS011;63640;59.264;18.116;2023-06-24T01:34:32;9.52;;;4.10;;
75059;SDS011;63640;59.264;18.116;2023-06-24T01:39:46;8.52;;;4.22;;
75059;SDS011;63640;59.264;18.116;2023-06-24T01:42:14;8.82;;;3.85;;
75059;SDS011;63640;59.264;18.116;2023-06-24T01:44:42;8.93;;;4.45;;
75059;SDS011;63640;59.264;18.116;2023-06-24T01:47:08;8.70;;;4.03;;
75059;SDS011;63640;59.264;18.116;2023-06-24T01:49:35;9.50;;;4.60;;
75059;SDS011;63640;59.264;18.116;2023-06-24T01:52:04;7.60;;;4.38;;
75059;SDS011;63640;59.264;18.116;2023-06-24T01:54:30;8.13;;;4.18;;
75059;SDS011;63640;59.264;18.116;2023-06-24T01:56:56;8.15;;;4.22;;
75059;SDS011;63640;59.264;18.116;2023-06-24T01:59:22;10.70;;;4.60;;
75059;SDS011;63640;59.264;18.116;2023-06-24T02:01:48;8.55;;;4.55;;
75059;SDS011;63640;59.264;18.116;2023-06-24T02:04:16;9.38;;;5.40;;
75059;SDS011;63640;59.264;18.116;2023-06-24T02:06:43;9.23;;;4.47;;
75059;SDS011;63640;59.264;18.116;2023-06-24T02:09:09;7.80;;;4.38;;
75059;SDS011;63640;59.264;18.116;2023-06-24T02:11:35;11.80;;;4.82;;
75059;SDS011;63640;59.264;18.116;2023-06-24T02:14:02;7.82;;;4.50;;
75059;SDS011;63640;59.264;18.116;2023-06-24T02:16:28;8.45;;;4.35;;
75059;SDS011;63640;59.264;18.116;2023-06-24T02:18:55;9.43;;;4.47;;
75059;SDS011;63640;59.264;18.116;2023-06-24T02:21:21;7.28;;;3.85;;
75059;SDS011;63640;59.264;18.116;2023-06-24T02:23:49;9.18;;;4.50;;
75059;SDS011;63640;59.264;18.116;2023-06-24T02:26:14;7.22;;;3.75;;
75059;SDS011;63640;59.264;18.116;2023-06-24T02:28:40;7.65;;;4.10;;
75059;SDS011;63640;59.264;18.116;2023-06-24T02:31:06;6.88;;;3.90;;
75059;SDS011;63640;59.264;18.116;2023-06-24T02:33:33;7.38;;;4.07;;
75059;SDS011;63640;59.264;18.116;2023-06-24T02:35:59;8.23;;;3.47;;
75059;SDS011;63640;59.264;18.116;2023-06-24T02:38:24;10.90;;;4.40;;
75059;SDS011;63640;59.264;18.116;2023-06-24T02:40:50;9.82;;;4.35;;
75059;SDS011;63640;59.264;18.116;2023-06-24T02:43:16;9.52;;;4.10;;
75059;SDS011;63640;59.264;18.116;2023-06-24T02:45:42;8.05;;;3.83;;
75059;SDS011;63640;59.264;18.116;2023-06-24T02:48:08;8.27;;;4.03;;
75059;SDS011;63640;59.264;18.116;2023-06-24T02:50:36;6.72;;;3.38;;
75059;SDS011;63640;59.264;18.116;2023-06-24T02:53:03;7.28;;;3.30;;
75059;SDS011;63640;59.264;18.116;2023-06-24T02:55:29;7.93;;;3.67;;
75059;SDS011;63640;59.264;18.116;2023-06-24T02:57:55;7.47;;;3.70;;
75059;SDS011;63640;59.264;18.116;2023-06-24T03:00:22;6.65;;;3.60;;
75059;SDS011;63640;59.264;18.116;2023-06-24T03:02:49;6.60;;;3.30;;
75059;SDS011;63640;59.264;18.116;2023-06-24T03:05:15;7.32;;;3.72;;
75059;SDS011;63640;59.264;18.116;2023-06-24T03:07:41;7.07;;;3.50;;
75059;SDS011;63640;59.264;18.116;2023-06-24T03:10:07;6.50;;;2.92;;
75059;SDS011;63640;59.264;18.116;2023-06-24T03:12:33;6.07;;;3.30;;
75059;SDS011;63640;59.264;18.116;2023-06-24T03:14:58;6.00;;;2.42;;
75059;SDS011;63640;59.264;18.116;2023-06-24T03:17:25;7.10;;;2.92;;
75059;SDS011;63640;59.264;18.116;2023-06-24T03:19:51;6.40;;;2.65;;
75059;SDS011;63640;59.264;18.116;2023-06-24T03:22:17;5.88;;;2.22;;
75059;SDS011;63640;59.264;18.116;2023-06-24T03:24:42;6.13;;;2.47;;
75059;SDS011;63640;59.264;18.116;2023-06-24T03:27:08;5.82;;;2.50;;
75059;SDS011;63640;59.264;18.116;2023-06-24T03:29:34;4.50;;;1.90;;
75059;SDS011;63640;59.264;18.116;2023-06-24T03:31:59;3.95;;;1.75;;
75059;SDS011;63640;59.264;18.116;2023-06-24T03:34:25;4.40;;;1.85;;
75059;SDS011;63640;59.264;18.116;2023-06-24T03:36:52;5.97;;;2.20;;
75059;SDS011;63640;59.264;18.116;2023-06-24T03:39:19;4.53;;;1.83;;
75059;SDS011;63640;59.264;18.116;2023-06-24T03:41:45;4.65;;;1.67;;
75059;SDS011;63640;59.264;18.116;2023-06-24T03:44:11;4.55;;;1.92;;
75059;SDS011;63640;59.264;18.116;2023-06-24T03:46:37;5.32;;;1.60;;
75059;SDS011;63640;59.264;18.116;2023-06-24T03:49:02;4.13;;;1.48;;
75059;SDS011;63640;59.264;18.116;2023-06-24T03:51:28;5.00;;;1.60;;
75059;SDS011;63640;59.264;18.116;2023-06-24T03:53:53;4.32;;;1.70;;
75059;SDS011;63640;59.264;18.116;2023-06-24T03:56:19;4.40;;;1.40;;
75059;SDS011;63640;59.264;18.116;2023-06-24T03:58:44;4.53;;;1.45;;
75059;SDS011;63640;59.264;18.116;2023-06-24T04:01:10;3.70;;;1.42;;
75059;SDS011;63640;59.264;18.116;2023-06-24T04:03:35;5.35;;;1.50;;
75059;SDS011;63640;59.264;18.116;2023-06-24T04:06:01;4.15;;;1.50;;
75059;SDS011;63640;59.264;18.116;2023-06-24T04:08:26;3.70;;;1.50;;
75059;SDS011;63640;59.264;18.116;2023-06-24T04:10:55;8.18;;;1.48;;
75059;SDS011;63640;59.264;18.116;2023-06-24T04:13:28;4.65;;;1.70;;
75059;SDS011;63640;59.264;18.116;2023-06-24T04:15:54;3.78;;;1.33;;
75059;SDS011;63640;59.264;18.116;2023-06-24T04:18:20;4.43;;;1.60;;
75059;SDS011;63640;59.264;18.116;2023-06-24T04:20:45;3.90;;;1.33;;
75059;SDS011;63640;59.264;18.116;2023-06-24T04:23:12;4.95;;;1.55;;
75059;SDS011;63640;59.264;18.116;2023-06-24T04:25:39;4.30;;;1.52;;
75059;SDS011;63640;59.264;18.116;2023-06-24T04:28:05;5.88;;;1.40;;
75059;SDS011;63640;59.264;18.116;2023-06-24T04:30:31;3.30;;;1.20;;
75059;SDS011;63640;59.264;18.116;2023-06-24T04:32:57;4.88;;;1.65;;
75059;SDS011;63640;59.264;18.116;2023-06-24T04:35:23;4.72;;;1.60;;
75059;SDS011;63640;59.264;18.116;2023-06-24T04:37:49;4.35;;;1.40;;
75059;SDS011;63640;59.264;18.116;2023-06-24T04:40:16;5.00;;;1.58;;
75059;SDS011;63640;59.264;18.116;2023-06-24T04:42:42;3.90;;;1.30;;
75059;SDS011;63640;59.264;18.116;2023-06-24T04:45:08;4.55;;;1.50;;
75059;SDS011;63640;59.264;18.116;2023-06-24T04:47:33;5.03;;;1.20;;
75059;SDS011;63640;59.264;18.116;2023-06-24T04:49:59;3.97;;;1.40;;
75059;SDS011;63640;59.264;18.116;2023-06-24T04:52:24;6.68;;;1.40;;
75059;SDS011;63640;59.264;18.116;2023-06-24T04:54:50;3.40;;;1.20;;
75059;SDS011;63640;59.264;18.116;2023-06-24T04:57:49;5.13;;;1.67;;
75059;SDS011;63640;59.264;18.116;2023-06-24T05:00:08;4.30;;;1.40;;
75059;SDS011;63640;59.264;18.116;2023-06-24T05:02:33;5.10;;;1.30;;
75059;SDS011;63640;59.264;18.116;2023-06-24T05:04:59;5.35;;;1.40;;
75059;SDS011;63640;59.264;18.116;2023-06-24T05:07:24;4.78;;;1.20;;
75059;SDS011;63640;59.264;18.116;2023-06-24T05:09:50;4.60;;;1.40;;
75059;SDS011;63640;59.264;18.116;2023-06-24T05:12:16;6.82;;;1.48;;
75059;SDS011;63640;59.264;18.116;2023-06-24T05:14:42;6.15;;;1.38;;
75059;SDS011;63640;59.264;18.116;2023-06-24T05:17:07;4.82;;;1.58;;
75059;SDS011;63640;59.264;18.116;2023-06-24T05:19:33;6.50;;;1.58;;
75059;SDS011;63640;59.264;18.116;2023-06-24T05:21:58;5.63;;;1.40;;
75059;SDS011;63640;59.264;18.116;2023-06-24T05:24:24;3.72;;;1.08;;
75059;SDS011;63640;59.264;18.116;2023-06-24T05:26:50;3.38;;;1.10;;
75059;SDS011;63640;59.264;18.116;2023-06-24T05:29:16;4.80;;;1.40;;
75059;SDS011;63640;59.264;18.116;2023-06-24T05:31:42;3.80;;;1.23;;
75059;SDS011;63640;59.264;18.116;2023-06-24T05:34:08;4.07;;;1.40;;
75059;SDS011;63640;59.264;18.116;2023-06-24T05:36:34;4.90;;;1.20;;
75059;SDS011;63640;59.264;18.116;2023-06-24T05:38:59;4.53;;;1.50;;
75059;SDS011;63640;59.264;18.116;2023-06-24T05:41:25;5.45;;;1.35;;
75059;SDS011;63640;59.264;18.116;2023-06-24T05:44:01;3.33;;;1.20;;
75059;SDS011;63640;59.264;18.116;2023-06-24T05:46:31;3.50;;;1.13;;
75059;SDS011;63640;59.264;18.116;2023-06-24T05:48:56;6.28;;;1.40;;
75059;SDS011;63640;59.264;18.116;2023-06-24T05:51:22;5.10;;;1.65;;
75059;SDS011;63640;59.264;18.116;2023-06-24T05:53:47;4.20;;;1.30;;
75059;SDS011;63640;59.264;18.116;2023-06-24T05:56:13;5.22;;;1.25;;
75059;SDS011;63640;59.264;18.116;2023-06-24T05:58:38;5.07;;;1.65;;
75059;SDS011;63640;59.264;18.116;2023-06-24T06:01:04;4.50;;;1.23;;
75059;SDS011;63640;59.264;18.116;2023-06-24T06:03:30;4.18;;;1.23;;
75059;SDS011;63640;59.264;18.116;2023-06-24T06:05:56;4.00;;;1.25;;
75059;SDS011;63640;59.264;18.116;2023-06-24T06:08:22;6.43;;;1.17;;
75059;SDS011;63640;59.264;18.116;2023-06-24T06:10:47;3.50;;;1.10;;
75059;SDS011;63640;59.264;18.116;2023-06-24T06:13:13;3.80;;;1.23;;
75059;SDS011;63640;59.264;18.116;2023-06-24T06:15:38;3.58;;;1.20;;
75059;SDS011;63640;59.264;18.116;2023-06-24T06:18:04;4.65;;;1.40;;
75059;SDS011;63640;59.264;18.116;2023-06-24T06:20:29;4.45;;;1.30;;
75059;SDS011;63640;59.264;18.116;2023-06-24T06:22:55;3.30;;;1.02;;
75059;SDS011;63640;59.264;18.116;2023-06-24T06:25:20;4.00;;;1.40;;
75059;SDS011;63640;59.264;18.116;2023-06-24T06:27:46;5.07;;;1.40;;
75059;SDS011;63640;59.264;18.116;2023-06-24T06:30:11;3.63;;;1.08;;
75059;SDS011;63640;59.264;18.116;2023-06-24T06:32:38;5.47;;;1.50;;
75059;SDS011;63640;59.264;18.116;2023-06-24T06:35:03;4.20;;;1.20;;
75059;SDS011;63640;59.264;18.116;2023-06-24T06:37:29;5.32;;;1.40;;
75059;SDS011;63640;59.264;18.116;2023-06-24T06:39:55;5.18;;;1.00;;
75059;SDS011;63640;59.264;18.116;2023-06-24T06:42:20;4.82;;;1.13;;
75059;SDS011;63640;59.264;18.116;2023-06-24T06:44:46;5.65;;;1.73;;
75059;SDS011;63640;59.264;18.116;2023-06-24T06:47:12;3.90;;;1.10;;
75059;SDS011;63640;59.264;18.116;2023-06-24T06:49:37;5.30;;;1.35;;
75059;SDS011;63640;59.264;18.116;2023-06-24T06:52:03;7.10;;;1.45;;
75059;SDS011;63640;59.264;18.116;2023-06-24T06:54:29;4.88;;;1.25;;
75059;SDS011;63640;59.264;18.116;2023-06-24T06:56:59;3.47;;;1.10;;
75059;SDS011;63640;59.264;18.116;2023-06-24T06:59:29;3.28;;;1.10;;
75059;SDS011;63640;59.264;18.116;2023-06-24T07:01:57;5.75;;;1.40;;
75059;SDS011;63640;59.264;18.116;2023-06-24T07:04:23;3.60;;;1.10;;
75059;SDS011;63640;59.264;18.116;2023-06-24T07:06:48;4.45;;;1.60;;
75059;SDS011;63640;59.264;18.116;2023-06-24T07:09:14;4.10;;;1.10;;
75059;SDS011;63640;59.264;18.116;2023-06-24T07:11:40;4.47;;;1.48;;
75059;SDS011;63640;59.264;18.116;2023-06-24T07:14:06;4.50;;;1.20;;
75059;SDS011;63640;59.264;18.116;2023-06-24T07:16:32;4.95;;;1.38;;
75059;SDS011;63640;59.264;18.116;2023-06-24T07:18:57;4.00;;;1.30;;
75059;SDS011;63640;59.264;18.116;2023-06-24T07:21:23;3.45;;;1.20;;
75059;SDS011;63640;59.264;18.116;2023-06-24T07:23:48;5.32;;;1.90;;
75059;SDS011;63640;59.264;18.116;2023-06-24T07:26:14;4.10;;;1.17;;
75059;SDS011;63640;59.264;18.116;2023-06-24T07:28:39;4.18;;;1.20;;
75059;SDS011;63640;59.264;18.116;2023-06-24T07:31:05;4.22;;;1.40;;
75059;SDS011;63640;59.264;18.116;2023-06-24T07:33:30;3.95;;;1.20;;
75059;SDS011;63640;59.264;18.116;2023-06-24T07:35:56;5.03;;;1.48;;
75059;SDS011;63640;59.264;18.116;2023-06-24T07:38:22;4.50;;;1.30;;
75059;SDS011;63640;59.264;18.116;2023-06-24T07:40:47;4.13;;;1.10;;
75059;SDS011;63640;59.264;18.116;2023-06-24T07:43:13;4.97;;;1.20;;
75059;SDS011;63640;59.264;18.116;2023-06-24T07:45:39;3.45;;;1.20;;
75059;SDS011;63640;59.264;18.116;2023-06-24T07:48:05;3.55;;;1.15;;
75059;SDS011;63640;59.264;18.116;2023-06-24T07:50:32;4.07;;;1.52;;
75059;SDS011;63640;59.264;18.116;2023-06-24T07:52:58;4.82;;;1.35;;
75059;SDS011;63640;59.264;18.116;2023-06-24T07:55:23;4.53;;;1.33;;
75059;SDS011;63640;59.264;18.116;2023-06-24T07:57:49;2.55;;;0.95;;
75059;SDS011;63640;59.264;18.116;2023-06-24T08:00:14;4.75;;;1.88;;
75059;SDS011;63640;59.264;18.116;2023-06-24T08:02:41;3.80;;;0.93;;
75059;SDS011;63640;59.264;18.116;2023-06-24T08:05:06;3.78;;;1.20;;
75059;SDS011;63640;59.264;18.116;2023-06-24T08:07:34;5.50;;;1.20;;
75059;SDS011;63640;59.264;18.116;2023-06-24T08:10:00;3.95;;;1.15;;
75059;SDS011;63640;59.264;18.116;2023-06-24T08:12:25;3.47;;;1.25;;
75059;SDS011;63640;59.264;18.116;2023-06-24T08:14:51;4.22;;;1.20;;
75059;SDS011;63640;59.264;18.116;2023-06-24T08:17:16;3.50;;;1.50;;
75059;SDS011;63640;59.264;18.116;2023-06-24T08:19:42;3.13;;;1.30;;
75059;SDS011;63640;59.264;18.116;2023-06-24T08:22:07;3.05;;;1.10;;
75059;SDS011;63640;59.264;18.116;2023-06-24T08:24:33;5.25;;;1.80;;
75059;SDS011;63640;59.264;18.116;2023-06-24T08:26:58;3.58;;;1.80;;
75059;SDS011;63640;59.264;18.116;2023-06-24T08:29:24;4.78;;;1.15;;
75059;SDS011;63640;59.264;18.116;2023-06-24T08:31:49;5.20;;;1.70;;
75059;SDS011;63640;59.264;18.116;2023-06-24T08:34:15;3.58;;;1.20;;
75059;SDS011;63640;59.264;18.116;2023-06-24T08:36:40;3.50;;;1.20;;
75059;SDS011;63640;59.264;18.116;2023-06-24T08:39:07;4.18;;;1.25;;
75059;SDS011;63640;59.264;18.116;2023-06-24T08:41:33;4.10;;;1.52;;
75059;SDS011;63640;59.264;18.116;2023-06-24T08:43:58;4.10;;;1.60;;
75059;SDS011;63640;59.264;18.116;2023-06-24T08:46:24;4.78;;;1.75;;
75059;SDS011;63640;59.264;18.116;2023-06-24T08:48:51;4.63;;;2.65;;
75059;SDS011;63640;59.264;18.116;2023-06-24T08:51:22;4.18;;;1.40;;
75059;SDS011;63640;59.264;18.116;2023-06-24T08:53:48;4.45;;;1.88;;
75059;SDS011;63640;59.264;18.116;2023-06-24T08:56:14;4.60;;;1.80;;
75059;SDS011;63640;59.264;18.116;2023-06-24T08:58:40;4.00;;;1.20;;
75059;SDS011;63640;59.264;18.116;2023-06-24T09:01:06;3.83;;;1.60;;
75059;SDS011;63640;59.264;18.116;2023-06-24T09:03:31;5.18;;;1.60;;
75059;SDS011;63640;59.264;18.116;2023-06-24T09:05:57;3.90;;;1.80;;
75059;SDS011;63640;59.264;18.116;2023-06-24T09:08:23;5.10;;;1.60;;
75059;SDS011;63640;59.264;18.116;2023-06-24T09:10:57;5.05;;;1.55;;
75059;SDS011;63640;59.264;18.116;2023-06-24T09:13:43;4.22;;;1.27;;
75059;SDS011;63640;59.264;18.116;2023-06-24T09:16:12;3.53;;;1.10;;
75059;SDS011;63640;59.264;18.116;2023-06-24T09:18:41;4.18;;;2.88;;
75059;SDS011;63640;59.264;18.116;2023-06-24T09:21:07;3.40;;;1.20;;
75059;SDS011;63640;59.264;18.116;2023-06-24T09:23:36;3.20;;;1.50;;
75059;SDS011;63640;59.264;18.116;2023-06-24T09:26:02;4.45;;;1.10;;
75059;SDS011;63640;59.264;18.116;2023-06-24T09:28:28;4.50;;;1.25;;
75059;SDS011;63640;59.264;18.116;2023-06-24T09:31:09;3.72;;;1.50;;
75059;SDS011;63640;59.264;18.116;2023-06-24T09:33:35;3.85;;;1.98;;
75059;SDS011;63640;59.264;18.116;2023-06-24T09:36:03;3.40;;;1.02;;
75059;SDS011;63640;59.264;18.116;2023-06-24T09:38:36;3.10;;;1.00;;
75059;SDS011;63640;59.264;18.116;2023-06-24T09:41:02;4.50;;;1.75;;
75059;SDS011;63640;59.264;18.116;2023-06-24T09:43:29;3.58;;;1.55;;
75059;SDS011;63640;59.264;18.116;2023-06-24T09:45:55;4.18;;;1.60;;
75059;SDS011;63640;59.264;18.116;2023-06-24T09:48:21;3.92;;;1.20;;
75059;SDS011;63640;59.264;18.116;2023-06-24T09:50:46;4.45;;;1.65;;
75059;SDS011;63640;59.264;18.116;2023-06-24T09:53:12;3.90;;;1.70;;
75059;SDS011;63640;59.264;18.116;2023-06-24T09:55:38;3.83;;;1.63;;
75059;SDS011;63640;59.264;18.116;2023-06-24T10:00:34;3.97;;;1.40;;
75059;SDS011;63640;59.264;18.116;2023-06-24T10:02:59;2.65;;;0.98;;
75059;SDS011;63640;59.264;18.116;2023-06-24T10:05:25;2.70;;;0.90;;
75059;SDS011;63640;59.264;18.116;2023-06-24T10:07:50;3.40;;;1.65;;
75059;SDS011;63640;59.264;18.116;2023-06-24T10:10:16;3.15;;;1.13;;
75059;SDS011;63640;59.264;18.116;2023-06-24T10:12:42;2.88;;;1.00;;
75059;SDS011;63640;59.264;18.116;2023-06-24T10:15:08;3.25;;;1.10;;
75059;SDS011;63640;59.264;18.116;2023-06-24T10:17:34;3.72;;;1.55;;
75059;SDS011;63640;59.264;18.116;2023-06-24T10:20:03;4.32;;;1.80;;
75059;SDS011;63640;59.264;18.116;2023-06-24T10:22:29;3.40;;;1.23;;
75059;SDS011;63640;59.264;18.116;2023-06-24T10:24:59;4.20;;;1.35;;
75059;SDS011;63640;59.264;18.116;2023-06-24T10:27:25;3.92;;;1.20;;
75059;SDS011;63640;59.264;18.116;2023-06-24T10:29:52;3.03;;;1.10;;
75059;SDS011;63640;59.264;18.116;2023-06-24T10:32:19;7.50;;;1.73;;
75059;SDS011;63640;59.264;18.116;2023-06-24T10:34:55;3.90;;;1.60;;
75059;SDS011;63640;59.264;18.116;2023-06-24T10:37:22;3.88;;;1.80;;
75059;SDS011;63640;59.264;18.116;2023-06-24T10:39:52;5.18;;;1.30;;
75059;SDS011;63640;59.264;18.116;2023-06-24T10:44:55;4.18;;;1.83;;
75059;SDS011;63640;59.264;18.116;2023-06-24T10:47:23;4.57;;;1.50;;
75059;SDS011;63640;59.264;18.116;2023-06-24T10:49:50;4.60;;;1.50;;
75059;SDS011;63640;59.264;18.116;2023-06-24T10:52:17;5.10;;;2.10;;
75059;SDS011;63640;59.264;18.116;2023-06-24T10:54:44;4.28;;;1.65;;
75059;SDS011;63640;59.264;18.116;2023-06-24T10:57:10;5.43;;;2.00;;
75059;SDS011;63640;59.264;18.116;2023-06-24T10:59:46;5.93;;;1.90;;
75059;SDS011;63640;59.264;18.116;2023-06-24T11:02:15;5.38;;;2.35;;
75059;SDS011;63640;59.264;18.116;2023-06-24T11:04:45;5.00;;;1.63;;
75059;SDS011;63640;59.264;18.116;2023-06-24T11:07:12;4.22;;;1.90;;
75059;SDS011;63640;59.264;18.116;2023-06-24T11:09:38;4.93;;;2.47;;
75059;SDS011;63640;59.264;18.116;2023-06-24T11:12:05;4.05;;;2.10;;
75059;SDS011;63640;59.264;18.116;2023-06-24T11:14:34;5.93;;;2.10;;
75059;SDS011;63640;59.264;18.116;2023-06-24T11:17:01;4.72;;;1.45;;
75059;SDS011;63640;59.264;18.116;2023-06-24T11:19:27;4.97;;;2.00;;
75059;SDS011;63640;59.264;18.116;2023-06-24T11:21:52;3.65;;;1.70;;
75059;SDS011;63640;59.264;18.116;2023-06-24T11:24:18;3.83;;;1.60;;
75059;SDS011;63640;59.264;18.116;2023-06-24T11:26:45;3.67;;;1.88;;
75059;SDS011;63640;59.264;18.116;2023-06-24T11:29:10;4.22;;;2.00;;
75059;SDS011;63640;59.264;18.116;2023-06-24T11:31:36;4.30;;;1.48;;
75059;SDS011;63640;59.264;18.116;2023-06-24T11:34:03;4.55;;;1.70;;
75059;SDS011;63640;59.264;18.116;2023-06-24T11:36:28;4.13;;;1.35;;
75059;SDS011;63640;59.264;18.116;2023-06-24T11:38:54;4.47;;;1.52;;
75059;SDS011;63640;59.264;18.116;2023-06-24T11:41:23;4.53;;;1.40;;
75059;SDS011;63640;59.264;18.116;2023-06-24T11:43:50;4.47;;;1.60;;
75059;SDS011;63640;59.264;18.116;2023-06-24T11:46:29;4.90;;;2.00;;
75059;SDS011;63640;59.264;18.116;2023-06-24T11:49:07;6.72;;;3.63;;
75059;SDS011;63640;59.264;18.116;2023-06-24T11:51:33;4.75;;;2.10;;
75059;SDS011;63640;59.264;18.116;2023-06-24T11:54:00;5.10;;;1.77;;
75059;SDS011;63640;59.264;18.116;2023-06-24T11:56:35;5.50;;;2.03;;
75059;SDS011;63640;59.264;18.116;2023-06-24T11:59:26;4.43;;;1.60;;
75059;SDS011;63640;59.264;18.116;2023-06-24T12:01:52;4.38;;;1.90;;
75059;SDS011;63640;59.264;18.116;2023-06-24T12:04:19;4.22;;;1.67;;
75059;SDS011;63640;59.264;18.116;2023-06-24T12:06:45;17.42;;;3.30;;
75059;SDS011;63640;59.264;18.116;2023-06-24T12:09:11;5.10;;;1.98;;
75059;SDS011;63640;59.264;18.116;2023-06-24T12:11:37;6.53;;;2.10;;
75059;SDS011;63640;59.264;18.116;2023-06-24T12:14:02;6.18;;;2.15;;
75059;SDS011;63640;59.264;18.116;2023-06-24T12:16:28;4.75;;;1.90;;
75059;SDS011;63640;59.264;18.116;2023-06-24T12:18:54;4.85;;;1.67;;
75059;SDS011;63640;59.264;18.116;2023-06-24T12:21:20;5.95;;;1.90;;
75059;SDS011;63640;59.264;18.116;2023-06-24T12:23:46;4.00;;;1.80;;
75059;SDS011;63640;59.264;18.116;2023-06-24T12:26:11;5.60;;;1.75;;
75059;SDS011;63640;59.264;18.116;2023-06-24T12:28:37;4.20;;;2.00;;
75059;SDS011;63640;59.264;18.116;2023-06-24T12:31:03;4.03;;;1.50;;
75059;SDS011;63640;59.264;18.116;2023-06-24T12:33:28;4.63;;;1.70;;
75059;SDS011;63640;59.264;18.116;2023-06-24T12:35:54;4.78;;;1.80;;
75059;SDS011;63640;59.264;18.116;2023-06-24T12:38:20;4.10;;;1.63;;
75059;SDS011;63640;59.264;18.116;2023-06-24T12:40:46;3.70;;;1.45;;
75059;SDS011;63640;59.264;18.116;2023-06-24T12:43:13;4.47;;;1.90;;
75059;SDS011;63640;59.264;18.116;2023-06-24T12:45:38;4.07;;;1.58;;
75059;SDS011;63640;59.264;18.116;2023-06-24T12:48:04;4.90;;;1.70;;
75059;SDS011;63640;59.264;18.116;2023-06-24T12:50:30;6.00;;;1.98;;
75059;SDS011;63640;59.264;18.116;2023-06-24T12:52:57;4.22;;;1.70;;
75059;SDS011;63640;59.264;18.116;2023-06-24T12:55:23;6.32;;;1.63;;
75059;SDS011;63640;59.264;18.116;2023-06-24T12:57:48;4.50;;;1.80;;
75059;SDS011;63640;59.264;18.116;2023-06-24T13:00:14;4.45;;;1.73;;
75059;SDS011;63640;59.264;18.116;2023-06-24T13:02:40;4.97;;;1.75;;
75059;SDS011;63640;59.264;18.116;2023-06-24T13:05:06;4.10;;;1.80;;
75059;SDS011;63640;59.264;18.116;2023-06-24T13:07:31;5.28;;;1.85;;
75059;SDS011;63640;59.264;18.116;2023-06-24T13:09:57;4.35;;;1.75;;
75059;SDS011;63640;59.264;18.116;2023-06-24T13:12:24;4.53;;;1.70;;
75059;SDS011;63640;59.264;18.116;2023-06-24T13:14:49;3.45;;;1.30;;
75059;SDS011;63640;59.264;18.116;2023-06-24T13:17:15;4.78;;;1.40;;
75059;SDS011;63640;59.264;18.116;2023-06-24T13:19:40;3.58;;;1.60;;
75059;SDS011;63640;59.264;18.116;2023-06-24T13:22:06;4.28;;;1.67;;
75059;SDS011;63640;59.264;18.116;2023-06-24T13:24:31;4.38;;;1.60;;
75059;SDS011;63640;59.264;18.116;2023-06-24T13:26:57;5.25;;;1.85;;
75059;SDS011;63640;59.264;18.116;2023-06-24T13:29:22;4.20;;;1.60;;
75059;SDS011;63640;59.264;18.116;2023-06-24T13:31:48;4.20;;;1.52;;
75059;SDS011;63640;59.264;18.116;2023-06-24T13:34:13;3.85;;;1.58;;
75059;SDS011;63640;59.264;18.116;2023-06-24T13:36:39;4.13;;;1.70;;
75059;SDS011;63640;59.264;18.116;2023-06-24T13:39:06;4.38;;;1.75;;
75059;SDS011;63640;59.264;18.116;2023-06-24T13:41:32;5.25;;;1.70;;
75059;SDS011;63640;59.264;18.116;2023-06-24T13:43:59;4.43;;;1.65;;
75059;SDS011;63640;59.264;18.116;2023-06-24T13:46:25;4.50;;;1.63;;
75059;SDS011;63640;59.264;18.116;2023-06-24T13:48:50;4.38;;;1.83;;
75059;SDS011;63640;59.264;18.116;2023-06-24T13:51:17;4.45;;;1.90;;
75059;SDS011;63640;59.264;18.116;2023-06-24T13:53:44;5.45;;;1.73;;
75059;SDS011;63640;59.264;18.116;2023-06-24T13:56:09;4.25;;;1.67;;
75059;SDS011;63640;59.264;18.116;2023-06-24T13:58:35;4.55;;;1.63;;
75059;SDS011;63640;59.264;18.116;2023-06-24T14:01:00;4.93;;;1.80;;
75059;SDS011;63640;59.264;18.116;2023-06-24T14:03:26;3.70;;;1.50;;
75059;SDS011;63640;59.264;18.116;2023-06-24T14:05:51;4.38;;;1.75;;
75059;SDS011;63640;59.264;18.116;2023-06-24T14:08:17;8.88;;;1.48;;
75059;SDS011;63640;59.264;18.116;2023-06-24T14:10:42;4.38;;;1.60;;
75059;SDS011;63640;59.264;18.116;2023-06-24T14:13:08;4.40;;;1.70;;
75059;SDS011;63640;59.264;18.116;2023-06-24T14:15:34;4.85;;;1.65;;
75059;SDS011;63640;59.264;18.116;2023-06-24T14:18:00;8.48;;;2.10;;
75059;SDS011;63640;59.264;18.116;2023-06-24T14:20:25;13.90;;;1.65;;
75059;SDS011;63640;59.264;18.116;2023-06-24T14:22:51;5.05;;;1.52;;
75059;SDS011;63640;59.264;18.116;2023-06-24T14:25:17;4.10;;;1.73;;
75059;SDS011;63640;59.264;18.116;2023-06-24T14:27:42;5.78;;;1.95;;
75059;SDS011;63640;59.264;18.116;2023-06-24T14:30:08;5.90;;;1.58;;
75059;SDS011;63640;59.264;18.116;2023-06-24T14:32:33;5.10;;;1.70;;
75059;SDS011;63640;59.264;18.116;2023-06-24T14:34:59;9.82;;;8.82;;
75059;SDS011;63640;59.264;18.116;2023-06-24T14:37:24;4.25;;;1.45;;
75059;SDS011;63640;59.264;18.116;2023-06-24T14:39:50;4.45;;;1.70;;
75059;SDS011;63640;59.264;18.116;2023-06-24T14:42:15;4.40;;;1.45;;
75059;SDS011;63640;59.264;18.116;2023-06-24T14:44:41;4.72;;;1.58;;
75059;SDS011;63640;59.264;18.116;2023-06-24T14:47:06;3.97;;;1.60;;
75059;SDS011;63640;59.264;18.116;2023-06-24T14:49:32;4.30;;;1.75;;